Atlanta Naval Air Station, Georgia
Current Conditions -  °F | °C
As of 12:58 AM on Friday 19 Dec 2014 (Local Time) from KMGE Reporting Station
Clear Clear  
Wind Chill: 31°   Ceiling: Unl
Heat Index: 36°   Visibility: 10mi
Dew Point: 33°   Wind: 7mph
Humidity: 86%   Direction: 280°W
Pressure: 30.14"   Gusts: NA
Location:  33.9252°N, 84.5422°W
Report Text: KMGE 190558Z AUTO 28006KT 10SM CLR 02/00 A3014 RMK AO2 SLP212 T00240003 10056 20024 58002 $
Loading
Personal Weather Stations






























Interactive Weather Map New forecast layout! Learn more

10-Day Weather Forecast

Advertisements
Track Severe Weather on mobile